createdAt,value
2023-01-18T00:01:16.717Z,9.60
2023-01-18T00:03:43.868Z,9.00
2023-01-18T00:06:11.805Z,9.52
2023-01-18T00:08:40.244Z,10.38
2023-01-18T00:11:12.666Z,9.60
2023-01-18T00:13:40.052Z,11.27
2023-01-18T00:16:11.417Z,10.10
2023-01-18T00:18:38.562Z,9.88
2023-01-18T00:21:11.137Z,10.00
2023-01-18T00:23:38.737Z,9.60
2023-01-18T00:26:08.171Z,8.68
2023-01-18T00:28:36.114Z,9.82
2023-01-18T00:31:10.178Z,9.32
2023-01-18T00:33:37.609Z,10.73
2023-01-18T00:36:05.335Z,9.35
2023-01-18T00:38:32.319Z,9.85
2023-01-18T00:40:59.514Z,8.40
2023-01-18T00:43:41.790Z,12.25
2023-01-18T00:46:15.079Z,8.35
2023-01-18T00:48:44.233Z,10.85
2023-01-18T00:51:16.329Z,10.73
2023-01-18T00:53:44.464Z,9.07
2023-01-18T00:56:14.368Z,10.15
2023-01-18T00:58:41.719Z,9.23
2023-01-18T01:01:10.290Z,9.30
2023-01-18T01:03:57.185Z,9.45
2023-01-18T01:06:47.038Z,7.18
2023-01-18T01:09:21.802Z,9.52
2023-01-18T01:12:08.157Z,10.10
2023-01-18T01:14:56.727Z,9.77
2023-01-18T01:17:42.373Z,9.23
2023-01-18T01:20:28.786Z,8.35
2023-01-18T01:23:14.366Z,10.05
2023-01-18T01:26:00.585Z,8.85
2023-01-18T01:28:27.512Z,7.68
2023-01-18T01:31:02.488Z,8.15
2023-01-18T01:33:30.694Z,6.40
2023-01-18T01:35:59.681Z,7.22
2023-01-18T01:38:27.275Z,9.80
2023-01-18T01:41:06.939Z,5.88
2023-01-18T01:43:49.115Z,7.25
2023-01-18T01:46:38.241Z,9.75
2023-01-18T01:49:08.800Z,7.10
2023-01-18T01:51:39.947Z,6.75
2023-01-18T01:54:13.455Z,7.15
2023-01-18T01:56:42.232Z,8.52
2023-01-18T01:59:10.433Z,8.90
2023-01-18T02:01:39.181Z,8.90
2023-01-18T02:04:06.399Z,7.43
2023-01-18T02:06:36.883Z,8.43
2023-01-18T02:09:08.456Z,8.30
2023-01-18T02:11:36.338Z,8.13
2023-01-18T02:14:08.657Z,5.15
2023-01-18T02:17:11.091Z,8.18
2023-01-18T02:20:19.725Z,7.20
2023-01-18T02:23:20.256Z,7.53
2023-01-18T02:26:08.552Z,6.93
2023-01-18T02:28:37.803Z,5.28
2023-01-18T02:31:04.860Z,6.05
2023-01-18T02:33:47.105Z,8.45
2023-01-18T02:36:27.761Z,5.30
2023-01-18T02:39:00.433Z,7.82
2023-01-18T02:44:49.015Z,7.88
2023-01-18T02:47:16.682Z,6.63
2023-01-18T02:49:43.626Z,6.43
2023-01-18T02:52:39.681Z,7.28
2023-01-18T02:55:14.418Z,4.75
2023-01-18T02:57:41.319Z,7.53
2023-01-18T03:00:11.643Z,5.97
2023-01-18T03:02:40.978Z,8.48
2023-01-18T03:05:10.719Z,5.50
2023-01-18T03:07:54.955Z,9.45
2023-01-18T03:10:26.192Z,7.13
2023-01-18T03:13:05.886Z,8.30
2023-01-18T03:15:43.211Z,6.68
2023-01-18T03:18:37.268Z,7.03
2023-01-18T03:21:08.226Z,8.85
2023-01-18T03:23:40.111Z,6.70
2023-01-18T03:26:08.785Z,6.20
2023-01-18T03:29:02.509Z,7.05
2023-01-18T03:31:57.714Z,5.25
2023-01-18T03:34:32.739Z,6.65
2023-01-18T03:37:08.447Z,7.32
2023-01-18T03:39:39.264Z,8.73
2023-01-18T03:42:20.050Z,8.07
2023-01-18T03:44:56.434Z,7.45
2023-01-18T03:47:23.488Z,8.15
2023-01-18T03:49:50.983Z,7.93
2023-01-18T03:52:29.165Z,8.13
2023-01-18T03:55:21.527Z,7.32
2023-01-18T03:57:56.128Z,7.72
2023-01-18T04:00:23.349Z,8.52
2023-01-18T04:02:50.819Z,5.72
2023-01-18T04:05:19.038Z,6.93
2023-01-18T04:07:45.990Z,7.80
2023-01-18T04:10:13.002Z,6.68
2023-01-18T04:12:39.945Z,5.63
2023-01-18T04:15:07.412Z,7.88
2023-01-18T04:17:34.325Z,6.43
2023-01-18T04:20:01.345Z,5.80
2023-01-18T04:22:28.250Z,7.65
2023-01-18T04:24:55.177Z,6.40
2023-01-18T04:27:24.348Z,6.90
2023-01-18T04:29:52.220Z,5.65
2023-01-18T04:32:19.150Z,6.22
2023-01-18T04:34:46.052Z,7.18
2023-01-18T04:37:12.912Z,6.45
2023-01-18T04:39:39.970Z,7.90
2023-01-18T04:42:07.133Z,6.32
2023-01-18T04:44:34.194Z,6.15
2023-01-18T04:47:01.304Z,4.75
2023-01-18T04:49:28.765Z,4.57
2023-01-18T04:51:55.934Z,5.13
2023-01-18T04:54:23.603Z,5.60
2023-01-18T04:56:52.169Z,3.35
2023-01-18T04:59:19.392Z,6.18
2023-01-18T05:01:46.901Z,7.47
2023-01-18T05:04:14.819Z,5.25
2023-01-18T05:06:42.239Z,6.68
2023-01-18T05:09:12.648Z,7.80
2023-01-18T05:11:39.993Z,4.90
2023-01-18T05:14:07.449Z,5.60
2023-01-18T05:16:35.242Z,6.15
2023-01-18T05:19:02.656Z,7.60
2023-01-18T05:21:30.093Z,5.05
2023-01-18T05:23:57.415Z,5.03
2023-01-18T05:26:25.056Z,7.05
2023-01-18T05:28:58.090Z,6.80
2023-01-18T05:31:26.201Z,6.13
2023-01-18T05:33:53.581Z,7.13
2023-01-18T05:36:20.783Z,6.20
2023-01-18T05:38:48.081Z,7.03
2023-01-18T05:41:15.656Z,5.57
2023-01-18T05:43:42.937Z,5.32
2023-01-18T05:46:10.715Z,4.80
2023-01-18T05:48:38.251Z,4.40
2023-01-18T05:51:10.561Z,6.10
2023-01-18T05:53:38.736Z,6.60
2023-01-18T05:56:08.488Z,5.72
2023-01-18T05:58:36.107Z,3.58
2023-01-18T06:01:03.849Z,6.45
2023-01-18T06:03:31.577Z,6.30
2023-01-18T06:05:59.625Z,5.45
2023-01-18T06:08:26.897Z,6.32
2023-01-18T06:10:59.731Z,5.07
2023-01-18T06:13:29.646Z,3.78
2023-01-18T06:15:58.511Z,5.75
2023-01-18T06:18:27.541Z,5.18
2023-01-18T06:21:01.192Z,5.13
2023-01-18T06:23:30.202Z,5.38
2023-01-18T06:25:57.992Z,5.07
2023-01-18T06:28:25.615Z,3.95
2023-01-18T06:30:55.293Z,5.03
2023-01-18T06:33:24.430Z,4.65
2023-01-18T06:35:53.064Z,6.25
2023-01-18T06:38:21.242Z,4.78
2023-01-18T06:40:48.542Z,5.82
2023-01-18T06:43:17.795Z,5.68
2023-01-18T06:45:46.346Z,4.90
2023-01-18T06:48:13.625Z,4.65
2023-01-18T06:50:41.151Z,3.63
2023-01-18T06:53:08.547Z,4.07
2023-01-18T06:55:36.202Z,3.25
2023-01-18T06:58:03.709Z,6.13
2023-01-18T07:00:31.416Z,4.93
2023-01-18T07:02:59.340Z,3.65
2023-01-18T07:05:27.005Z,5.93
2023-01-18T07:07:53.992Z,4.93
2023-01-18T07:10:21.136Z,4.10
2023-01-18T07:12:49.062Z,4.10
2023-01-18T07:15:21.977Z,6.32
2023-01-18T07:17:51.058Z,4.90
2023-01-18T07:20:20.130Z,6.57
2023-01-18T07:22:52.257Z,4.65
2023-01-18T07:25:21.492Z,4.75
2023-01-18T07:27:49.712Z,4.90
2023-01-18T07:30:17.900Z,4.60
2023-01-18T07:32:49.935Z,5.13
2023-01-18T07:35:20.494Z,4.07
2023-01-18T07:37:53.508Z,5.13
2023-01-18T07:40:22.122Z,3.63
2023-01-18T07:42:56.399Z,4.38
2023-01-18T07:45:24.286Z,2.78
2023-01-18T07:47:53.707Z,5.00
2023-01-18T07:50:22.819Z,5.00
2023-01-18T07:52:50.264Z,4.63
2023-01-18T07:55:17.621Z,4.55
2023-01-18T07:57:45.208Z,5.10
2023-01-18T08:00:14.759Z,6.57
2023-01-18T08:02:42.181Z,4.90
2023-01-18T08:05:10.822Z,4.53
2023-01-18T08:07:38.197Z,4.80
2023-01-18T08:10:06.182Z,4.68
2023-01-18T08:12:33.536Z,3.97
2023-01-18T08:15:00.956Z,4.13
2023-01-18T08:17:29.971Z,4.38
2023-01-18T08:19:57.787Z,4.47
2023-01-18T08:22:25.193Z,4.00
2023-01-18T08:24:53.011Z,4.88
2023-01-18T08:27:20.551Z,4.38
2023-01-18T08:29:48.347Z,4.05
2023-01-18T08:32:16.020Z,3.53
2023-01-18T08:34:43.737Z,5.00
2023-01-18T08:37:12.227Z,5.28
2023-01-18T08:39:39.563Z,3.53
2023-01-18T08:42:06.799Z,5.03
2023-01-18T08:44:33.987Z,4.53
2023-01-18T08:47:01.876Z,4.55
2023-01-18T08:49:29.781Z,3.60
2023-01-18T08:51:58.379Z,3.97
2023-01-18T08:54:26.063Z,4.65
2023-01-18T08:56:53.683Z,4.57
2023-01-18T08:59:21.373Z,3.15
2023-01-18T09:01:49.426Z,3.88
2023-01-18T09:04:17.150Z,5.75
2023-01-18T09:06:45.005Z,3.90
2023-01-18T09:09:13.281Z,4.00
2023-01-18T09:11:40.430Z,5.03
2023-01-18T09:14:07.870Z,3.92
2023-01-18T09:16:35.307Z,3.83
2023-01-18T09:19:06.642Z,3.05
2023-01-18T09:21:34.725Z,3.70
2023-01-18T09:24:02.512Z,4.30
2023-01-18T09:26:30.794Z,4.28
2023-01-18T09:28:58.390Z,3.97
2023-01-18T09:31:28.053Z,3.05
2023-01-18T09:34:00.975Z,4.25
2023-01-18T09:36:41.485Z,4.38
2023-01-18T09:39:08.901Z,3.85
2023-01-18T09:41:52.782Z,3.70
2023-01-18T09:44:32.455Z,4.13
2023-01-18T09:47:07.808Z,3.15
2023-01-18T09:49:55.601Z,4.13
2023-01-18T09:52:32.270Z,4.35
2023-01-18T09:55:28.933Z,3.45
2023-01-18T09:57:59.513Z,5.28
2023-01-18T10:00:30.042Z,4.80
2023-01-18T10:03:03.613Z,4.18
2023-01-18T10:05:40.412Z,3.38
2023-01-18T10:08:15.747Z,4.22
2023-01-18T10:11:09.893Z,2.92
2023-01-18T10:13:46.056Z,4.30
2023-01-18T10:16:15.152Z,3.65
2023-01-18T10:18:45.969Z,2.88
2023-01-18T10:21:23.014Z,4.05
2023-01-18T10:24:01.805Z,6.00
2023-01-18T10:26:35.550Z,3.60
2023-01-18T10:29:33.652Z,4.10
2023-01-18T10:32:08.614Z,4.68
2023-01-18T10:34:39.536Z,4.75
2023-01-18T10:37:28.022Z,4.93
2023-01-18T10:40:05.164Z,4.18
2023-01-18T10:42:51.716Z,4.03
2023-01-18T10:45:22.940Z,4.65
2023-01-18T10:47:53.216Z,4.70
2023-01-18T10:50:20.597Z,4.07
2023-01-18T10:52:48.159Z,4.55
2023-01-18T10:55:22.206Z,4.70
2023-01-18T10:57:53.821Z,4.40
2023-01-18T11:00:34.133Z,4.80
2023-01-18T11:03:04.389Z,5.28
2023-01-18T11:05:35.175Z,4.43
2023-01-18T11:08:32.171Z,4.65
2023-01-18T11:10:59.523Z,3.83
2023-01-18T11:13:48.515Z,5.47
2023-01-18T11:16:22.668Z,5.00
2023-01-18T11:19:04.552Z,4.82
2023-01-18T11:21:43.568Z,6.53
2023-01-18T11:24:20.849Z,5.38
2023-01-18T11:27:01.956Z,4.97
2023-01-18T11:29:33.116Z,5.10
2023-01-18T11:32:19.413Z,4.70
2023-01-18T11:34:51.930Z,4.63
2023-01-18T11:37:29.025Z,5.32
2023-01-18T11:39:57.466Z,5.57
2023-01-18T11:42:36.884Z,5.25
2023-01-18T11:45:20.067Z,4.55
2023-01-18T11:48:05.953Z,5.35
2023-01-18T11:50:43.783Z,4.97
2023-01-18T11:53:13.908Z,4.88
2023-01-18T11:55:58.146Z,6.50
2023-01-18T11:58:32.347Z,5.30
2023-01-18T12:01:08.080Z,5.00
2023-01-18T12:03:47.867Z,6.68
2023-01-18T12:06:56.392Z,5.10
2023-01-18T12:09:42.346Z,5.55
2023-01-18T12:12:34.372Z,4.88
2023-01-18T12:15:26.065Z,5.13
2023-01-18T12:18:20.832Z,5.97
2023-01-18T12:20:52.182Z,5.50
2023-01-18T12:23:53.401Z,4.10
2023-01-18T12:26:54.819Z,6.47
2023-01-18T12:29:30.837Z,5.35
2023-01-18T12:32:16.568Z,5.30
2023-01-18T12:35:24.622Z,6.90
2023-01-18T12:38:11.007Z,6.32
2023-01-18T12:40:42.870Z,4.78
2023-01-18T12:43:44.852Z,4.43
2023-01-18T12:46:20.169Z,5.30
2023-01-18T12:49:17.546Z,6.40
2023-01-18T12:51:53.286Z,4.38
2023-01-18T12:54:34.600Z,6.57
2023-01-18T12:57:04.424Z,6.45
2023-01-18T12:59:34.383Z,6.43
2023-01-18T13:02:13.154Z,6.20
2023-01-18T13:04:49.946Z,4.95
2023-01-18T13:07:25.590Z,5.57
2023-01-18T13:09:53.833Z,5.88
2023-01-18T13:12:21.236Z,5.78
2023-01-18T13:15:18.001Z,7.22
2023-01-18T13:18:17.171Z,6.40
2023-01-18T13:21:07.610Z,5.53
2023-01-18T13:23:50.666Z,6.47
2023-01-18T13:29:16.717Z,4.47
2023-01-18T13:31:45.138Z,5.78
2023-01-18T13:34:47.994Z,5.55
2023-01-18T13:37:38.312Z,5.35
2023-01-18T13:40:07.390Z,7.07
2023-01-18T13:42:41.210Z,4.40
2023-01-18T13:45:26.569Z,5.25
2023-01-18T13:47:55.644Z,5.63
2023-01-18T13:50:29.066Z,5.55
2023-01-18T13:53:19.283Z,5.78
2023-01-18T13:55:46.353Z,5.55
2023-01-18T13:58:26.889Z,4.90
2023-01-18T14:00:58.742Z,4.15
2023-01-18T14:03:29.564Z,4.95
2023-01-18T14:05:58.817Z,5.28
2023-01-18T14:08:32.875Z,4.47
2023-01-18T14:11:10.421Z,6.10
2023-01-18T14:13:48.002Z,5.18
2023-01-18T14:16:30.879Z,5.45
2023-01-18T14:19:04.181Z,5.07
2023-01-18T14:21:49.911Z,5.38
2023-01-18T14:24:41.795Z,3.92
2023-01-18T14:27:17.337Z,5.70
2023-01-18T14:30:03.232Z,6.35
2023-01-18T14:32:37.951Z,5.85
2023-01-18T14:35:18.772Z,5.95
2023-01-18T14:37:45.997Z,5.07
2023-01-18T14:40:21.451Z,5.40
2023-01-18T14:42:53.834Z,4.60
2023-01-18T14:45:29.566Z,5.22
2023-01-18T14:48:01.950Z,4.57
2023-01-18T14:50:34.595Z,6.28
2023-01-18T14:55:34.418Z,5.78
2023-01-18T14:58:09.128Z,4.10
2023-01-18T15:00:44.346Z,5.55
2023-01-18T15:03:23.893Z,5.15
2023-01-18T15:05:58.021Z,5.75
2023-01-18T15:08:29.256Z,4.82
2023-01-18T15:10:57.848Z,4.75
2023-01-18T15:13:29.489Z,5.38
2023-01-18T15:16:02.281Z,5.53
2023-01-18T15:21:10.766Z,5.30
2023-01-18T15:23:38.399Z,4.60
2023-01-18T15:26:06.444Z,4.93
2023-01-18T15:28:36.602Z,4.28
2023-01-18T15:31:14.182Z,6.53
2023-01-18T15:33:42.242Z,5.22
2023-01-18T15:36:10.102Z,5.68
2023-01-18T15:38:37.395Z,3.85
2023-01-18T15:41:12.433Z,5.15
2023-01-18T15:43:44.351Z,4.53
2023-01-18T15:46:14.314Z,5.38
2023-01-18T15:48:54.754Z,3.95
2023-01-18T15:51:22.983Z,6.05
2023-01-18T15:53:56.398Z,4.75
2023-01-18T15:56:26.719Z,4.68
2023-01-18T15:58:56.127Z,4.00
2023-01-18T16:01:34.099Z,5.30
2023-01-18T16:04:06.952Z,5.05
2023-01-18T16:09:12.175Z,4.45
2023-01-18T16:11:53.323Z,4.88
2023-01-18T16:14:29.133Z,4.30
2023-01-18T16:17:18.303Z,4.80
2023-01-18T16:19:48.877Z,3.38
2023-01-18T16:22:26.391Z,5.95
2023-01-18T16:24:56.289Z,4.20
2023-01-18T16:27:28.629Z,4.40
2023-01-18T16:29:59.821Z,3.92
2023-01-18T16:32:29.458Z,3.58
2023-01-18T16:34:59.077Z,5.30
2023-01-18T16:37:26.162Z,3.20
2023-01-18T16:39:55.361Z,4.90
2023-01-18T16:42:29.594Z,2.58
2023-01-18T16:45:04.490Z,3.53
2023-01-18T16:47:31.378Z,3.28
2023-01-18T16:49:59.381Z,4.05
2023-01-18T16:52:27.364Z,2.60
2023-01-18T16:54:54.572Z,3.33
2023-01-18T16:57:23.763Z,4.20
2023-01-18T16:59:50.778Z,3.78
2023-01-18T17:02:17.797Z,2.90
2023-01-18T17:04:46.625Z,3.45
2023-01-18T17:07:14.259Z,3.95
2023-01-18T17:09:48.266Z,2.83
2023-01-18T17:12:16.163Z,3.05
2023-01-18T17:14:43.238Z,2.53
2023-01-18T17:17:11.179Z,5.53
2023-01-18T17:19:38.218Z,3.58
2023-01-18T17:22:06.563Z,3.45
2023-01-18T17:24:33.641Z,3.17
2023-01-18T17:27:01.467Z,3.45
2023-01-18T17:29:28.589Z,4.60
2023-01-18T17:31:55.647Z,4.68
2023-01-18T17:34:29.030Z,3.90
2023-01-18T17:36:59.628Z,5.15
2023-01-18T17:39:42.567Z,3.65
2023-01-18T17:42:22.384Z,6.35
2023-01-18T17:45:03.055Z,3.72
2023-01-18T17:47:31.592Z,3.65
2023-01-18T17:49:58.912Z,3.08
2023-01-18T17:52:27.375Z,3.30
2023-01-18T17:54:54.387Z,2.80
2023-01-18T17:57:21.288Z,3.50
2023-01-18T17:59:49.131Z,4.50
2023-01-18T18:02:16.160Z,4.65
2023-01-18T18:04:43.333Z,2.95
2023-01-18T18:07:10.185Z,3.13
2023-01-18T18:09:40.585Z,3.47
2023-01-18T18:12:08.641Z,2.83
2023-01-18T18:14:37.465Z,2.50
2023-01-18T18:17:05.899Z,2.63
2023-01-18T18:19:33.616Z,4.05
2023-01-18T18:22:01.002Z,3.17
2023-01-18T18:24:28.427Z,2.88
2023-01-18T18:26:55.694Z,2.97
2023-01-18T18:29:23.210Z,3.80
2023-01-18T18:31:50.286Z,1.85
2023-01-18T18:34:17.522Z,2.50
2023-01-18T18:36:44.884Z,2.47
2023-01-18T18:39:11.882Z,2.97
2023-01-18T18:41:38.789Z,2.08
2023-01-18T18:44:06.796Z,3.17
2023-01-18T18:46:33.833Z,3.53
2023-01-18T18:49:01.357Z,3.35
2023-01-18T18:51:28.361Z,2.90
2023-01-18T18:53:55.214Z,3.10
2023-01-18T18:56:22.135Z,3.88
2023-01-18T18:58:49.252Z,3.03
2023-01-18T19:01:27.752Z,3.15
2023-01-18T19:03:55.649Z,3.78
2023-01-18T19:06:23.794Z,2.47
2023-01-18T19:08:51.259Z,3.83
2023-01-18T19:11:18.651Z,3.55
2023-01-18T19:13:46.333Z,3.60
2023-01-18T19:16:14.562Z,3.70
2023-01-18T19:18:41.702Z,3.80
2023-01-18T19:21:08.763Z,4.13
2023-01-18T19:23:35.801Z,3.97
2023-01-18T19:26:03.908Z,4.43
2023-01-18T19:28:31.118Z,3.50
2023-01-18T19:31:05.856Z,3.42
2023-01-18T19:33:33.386Z,3.92
2023-01-18T19:36:09.010Z,2.95
2023-01-18T19:38:45.237Z,2.85
2023-01-18T19:41:12.987Z,2.78
2023-01-18T19:43:40.025Z,3.33
2023-01-18T19:46:11.347Z,4.15
2023-01-18T19:48:39.556Z,3.47
2023-01-18T19:51:16.673Z,3.85
2023-01-18T19:53:48.017Z,3.38
2023-01-18T19:56:14.826Z,3.20
2023-01-18T19:58:41.702Z,4.00
2023-01-18T20:01:23.078Z,4.05
2023-01-18T20:29:18.516Z,3.55
2023-01-18T20:31:49.824Z,2.03
2023-01-18T20:37:03.989Z,4.13
2023-01-18T20:39:31.817Z,3.35
2023-01-18T20:41:58.961Z,5.68
2023-01-18T20:44:26.371Z,4.90
2023-01-18T20:46:55.363Z,3.25
2023-01-18T20:49:27.311Z,4.07
2023-01-18T20:52:00.783Z,4.97
2023-01-18T20:54:28.113Z,3.88
2023-01-18T20:56:55.392Z,3.45
2023-01-18T20:59:22.920Z,3.30
2023-01-18T21:01:50.411Z,3.33
2023-01-18T21:04:18.000Z,3.75
2023-01-18T21:06:46.758Z,3.08
2023-01-18T21:09:13.895Z,3.08
2023-01-18T21:11:41.114Z,3.95
2023-01-18T21:14:08.577Z,4.40
2023-01-18T21:16:35.771Z,3.55
2023-01-18T21:19:03.015Z,3.53
2023-01-18T21:21:32.109Z,3.95
2023-01-18T21:24:00.335Z,4.30
2023-01-18T21:26:27.706Z,3.85
2023-01-18T21:28:55.544Z,4.00
2023-01-18T21:31:23.133Z,3.47
2023-01-18T21:33:50.376Z,3.33
2023-01-18T21:36:18.477Z,3.55
2023-01-18T21:38:45.763Z,3.90
2023-01-18T21:41:31.634Z,4.28
2023-01-18T21:44:17.555Z,2.83
2023-01-18T21:46:46.386Z,3.92
2023-01-18T21:49:43.308Z,3.85
2023-01-18T21:52:33.400Z,3.22
2023-01-18T21:55:00.780Z,4.00
2023-01-18T21:57:27.874Z,3.45
2023-01-18T21:59:54.881Z,3.80
2023-01-18T22:02:22.680Z,3.90
2023-01-18T22:05:03.748Z,4.18
2023-01-18T22:07:34.173Z,6.10
2023-01-18T22:10:06.861Z,6.63
2023-01-18T22:12:36.307Z,4.47
2023-01-18T22:15:07.386Z,3.78
2023-01-18T22:17:34.609Z,3.65
2023-01-18T22:20:02.203Z,3.20
2023-01-18T22:22:29.468Z,2.92
2023-01-18T22:24:57.165Z,4.10
2023-01-18T22:27:24.178Z,3.90
2023-01-18T22:29:51.422Z,3.83
2023-01-18T22:32:18.440Z,3.95
2023-01-18T22:34:45.556Z,3.38
2023-01-18T22:37:12.549Z,3.42
2023-01-18T22:39:39.663Z,4.13
2023-01-18T22:42:06.780Z,3.58
2023-01-18T22:44:33.923Z,4.40
2023-01-18T22:47:01.401Z,4.47
2023-01-18T22:49:28.398Z,4.05
2023-01-18T22:51:55.432Z,4.35
2023-01-18T22:54:23.171Z,3.53
2023-01-18T22:56:50.375Z,3.80
2023-01-18T22:59:17.591Z,3.72
2023-01-18T23:01:44.999Z,3.78
2023-01-18T23:04:12.424Z,4.32
2023-01-18T23:06:42.657Z,3.58
2023-01-18T23:09:10.543Z,3.50
2023-01-18T23:11:38.658Z,3.58
2023-01-18T23:14:24.472Z,4.10
2023-01-18T23:17:10.594Z,4.18
2023-01-18T23:19:37.770Z,3.75
2023-01-18T23:22:07.364Z,3.95
2023-01-18T23:24:36.810Z,3.83
2023-01-18T23:27:06.422Z,4.10
2023-01-18T23:29:33.968Z,4.18
2023-01-18T23:32:01.118Z,2.90
2023-01-18T23:34:28.390Z,3.50
2023-01-18T23:36:55.405Z,4.30
2023-01-18T23:39:41.353Z,4.03
2023-01-18T23:42:27.375Z,3.83
2023-01-18T23:45:13.157Z,4.10
2023-01-18T23:47:59.407Z,3.28
2023-01-18T23:50:45.370Z,3.67
2023-01-18T23:53:32.519Z,5.60
2023-01-18T23:56:00.245Z,5.30
2023-01-18T23:58:28.142Z,3.92
